Time;durP1;ratioP1;P1;durP2;ratioP2;P2;SDS_P1;SDS_P2;PMS_P1;PMS_P2;Temp;Humidity;BMP_temperature;BMP_pressure;BME280_temperature;BME280_humidity;BME280_pressure;Samples;Min_cycle;Max_cycle;Signal;HPM_P1;HPM_P2
2023/06/14 00:01:58;;;;;;;254.01;123.28;;;;;;;20.85;99.02;99200.00;2498264;27;20475;-80
2023/06/14 00:02:08;;;;;;;311.17;155.57;;;;;;;20.86;99.06;99199.03;352857;28;1313;-80
2023/06/14 00:02:19;;;;;;;317.27;160.25;;;;;;;20.90;98.65;99199.59;350984;28;1325;-80
2023/06/14 00:02:29;;;;;;;320.27;163.43;;;;;;;20.92;98.74;99195.81;349015;28;1299;-79
2023/06/14 00:02:40;;;;;;;322.80;165.20;;;;;;;20.95;98.70;99199.19;346101;28;1357;-79
2023/06/14 00:02:50;;;;;;;320.65;164.77;;;;;;;20.95;98.46;99201.84;347335;28;1297;-79
2023/06/14 00:03:03;;;;;;;322.27;167.17;;;;;;;20.93;97.93;99202.81;348907;28;1237;-79
2023/06/14 00:03:17;;;;;;;319.30;164.02;;;;;;;20.92;98.16;99197.66;348766;28;1452;-79
2023/06/14 00:03:27;;;;;;;314.42;158.77;;;;;;;20.90;98.42;99200.44;348708;28;1177;-79
2023/06/14 00:03:38;;;;;;;313.10;160.17;;;;;;;20.88;98.11;99197.09;348029;28;1335;-80
2023/06/14 00:03:49;;;;;;;318.15;161.73;;;;;;;20.85;98.59;99200.00;348747;28;1701;-79
2023/06/14 00:04:02;;;;;;;321.97;164.90;;;;;;;20.80;98.47;99198.75;346002;28;1338;-81
2023/06/14 00:04:13;;;;;;;321.63;167.73;;;;;;;20.81;98.74;99200.44;350215;28;1378;-80
2023/06/14 00:04:25;;;;;;;319.40;167.33;;;;;;;20.82;98.70;99202.94;346451;28;1302;-80
2023/06/14 00:04:36;;;;;;;315.60;164.32;;;;;;;20.82;98.91;99197.63;346520;28;883;-80
2023/06/14 00:04:48;;;;;;;316.90;165.63;;;;;;;20.84;98.97;99201.00;348207;28;1595;-80
2023/06/14 00:04:59;;;;;;;321.20;165.40;;;;;;;20.86;98.34;99204.34;348947;28;1291;-80
2023/06/14 00:05:11;;;;;;;326.08;166.15;;;;;;;20.82;98.71;99192.31;350341;28;1479;-80
2023/06/14 00:05:23;;;;;;;322.15;163.10;;;;;;;20.79;98.53;99197.09;348135;28;938;-80
2023/06/14 00:05:38;;;;;;;317.92;159.15;;;;;;;20.78;98.45;99193.59;347480;28;1298;-80
2023/06/14 00:05:48;;;;;;;318.90;160.02;;;;;;;20.80;98.74;99193.44;348568;28;1197;-80
2023/06/14 00:05:59;;;;;;;320.57;164.40;;;;;;;20.82;98.65;99191.47;346387;28;1692;-80
2023/06/14 00:06:10;;;;;;;322.10;168.07;;;;;;;20.85;98.80;99192.03;345555;28;1560;-80
2023/06/14 00:06:20;;;;;;;325.45;167.63;;;;;;;20.87;98.43;99194.56;348706;28;1341;-81
2023/06/14 00:06:31;;;;;;;321.63;163.40;;;;;;;20.90;98.46;99195.13;344752;28;1336;-80
2023/06/14 00:06:41;;;;;;;321.08;162.85;;;;;;;20.93;98.39;99200.16;343299;28;1330;-80
2023/06/14 00:06:52;;;;;;;317.35;161.40;;;;;;;20.96;98.39;99204.38;346217;28;1327;-80
2023/06/14 00:07:03;;;;;;;317.77;163.90;;;;;;;20.99;97.99;99197.94;348767;28;1255;-80
2023/06/14 00:07:13;;;;;;;318.30;163.23;;;;;;;21.02;97.88;99197.66;344708;28;1196;-80
2023/06/14 00:07:36;;;;;;;322.73;165.98;;;;;;;21.07;97.76;99195.44;346949;28;1386;-80
2023/06/14 00:07:48;;;;;;;320.27;161.80;;;;;;;21.02;97.57;99198.50;342410;28;1277;-80
2023/06/14 00:08:00;;;;;;;319.10;162.07;;;;;;;20.96;97.79;99198.22;340637;29;1338;-80
2023/06/14 00:08:10;;;;;;;316.83;163.70;;;;;;;20.91;98.12;99202.13;341360;28;1507;-80
2023/06/14 00:08:22;;;;;;;317.50;162.77;;;;;;;20.90;98.27;99199.59;337856;29;1349;-80
2023/06/14 00:08:33;;;;;;;321.58;165.82;;;;;;;20.82;98.80;99194.13;339325;29;1316;-80
2023/06/14 00:08:43;;;;;;;320.85;164.82;;;;;;;20.73;98.89;99193.16;336704;29;1332;-80
2023/06/14 00:08:54;;;;;;;319.30;166.43;;;;;;;20.75;99.30;99195.69;339588;29;1268;-80
2023/06/14 00:09:04;;;;;;;316.92;163.82;;;;;;;20.76;99.29;99200.03;341091;28;779;-80
2023/06/14 00:09:17;;;;;;;319.37;167.00;;;;;;;20.76;99.33;99198.22;338907;29;2984;-80
2023/06/14 00:09:28;;;;;;;318.73;166.45;;;;;;;20.77;99.16;99199.03;337823;29;5100;-81
2023/06/14 00:09:38;;;;;;;320.50;169.47;;;;;;;20.77;99.41;99201.72;342707;28;3419;-80
2023/06/14 00:09:48;;;;;;;320.55;167.02;;;;;;;20.78;99.39;99198.91;340493;28;1353;-80
2023/06/14 00:09:59;;;;;;;323.63;167.47;;;;;;;20.79;98.87;99197.94;339229;29;1222;-80
2023/06/14 00:10:10;;;;;;;323.13;163.30;;;;;;;20.74;99.49;99194.00;342642;28;1627;-80
2023/06/14 00:10:21;;;;;;;324.05;163.82;;;;;;;20.73;99.43;99190.50;343414;28;1389;-80
2023/06/14 00:10:33;;;;;;;322.50;164.02;;;;;;;20.76;99.51;99197.38;341995;28;1431;-80
2023/06/14 00:10:43;;;;;;;321.42;167.25;;;;;;;20.81;99.81;99203.09;341973;28;1328;-80
2023/06/14 00:10:54;;;;;;;322.30;164.77;;;;;;;20.82;99.45;99202.94;343778;28;2020;-80
2023/06/14 00:11:04;;;;;;;320.27;162.48;;;;;;;20.83;99.56;99201.97;344379;28;1200;-80
2023/06/14 00:11:15;;;;;;;321.87;162.97;;;;;;;20.86;99.34;99192.88;343384;28;1395;-80
2023/06/14 00:11:26;;;;;;;318.25;162.55;;;;;;;20.88;99.30;99193.59;344301;28;1345;-79
2023/06/14 00:11:37;;;;;;;320.10;163.07;;;;;;;20.90;99.15;99199.59;345143;28;807;-79
2023/06/14 00:11:47;;;;;;;316.90;162.20;;;;;;;20.92;99.16;99201.16;339063;29;1454;-79
2023/06/14 00:11:57;;;;;;;319.63;166.63;;;;;;;20.91;98.81;99196.81;336043;29;1170;-79
2023/06/14 00:12:08;;;;;;;317.90;168.80;;;;;;;20.92;98.94;99203.81;336587;29;1773;-79
2023/06/14 00:12:19;;;;;;;320.67;170.55;;;;;;;20.90;99.05;99196.94;333562;29;2109;-79
2023/06/14 00:12:29;;;;;;;319.35;168.23;;;;;;;20.89;99.10;99203.25;333027;29;798;-79
2023/06/14 00:12:40;;;;;;;325.10;170.07;;;;;;;20.87;99.16;99195.41;333389;29;1493;-79
2023/06/14 00:12:50;;;;;;;322.17;166.55;;;;;;;20.88;99.01;99199.75;329500;29;1888;-79
2023/06/14 00:13:01;;;;;;;324.30;165.73;;;;;;;20.88;98.59;99198.91;324573;30;1210;-79
2023/06/14 00:13:12;;;;;;;320.77;165.10;;;;;;;20.88;98.94;99197.09;328874;30;1613;-79
2023/06/14 00:13:23;;;;;;;321.80;165.53;;;;;;;20.87;99.01;99200.72;327923;30;958;-81
2023/06/14 00:13:33;;;;;;;317.15;166.80;;;;;;;20.89;98.77;99195.25;328982;29;1437;-80
2023/06/14 00:13:44;;;;;;;314.80;163.77;;;;;;;20.90;99.03;99195.13;328241;30;1114;-80
2023/06/14 00:13:54;;;;;;;314.87;164.93;;;;;;;20.92;98.68;99202.97;332046;29;1594;-80
2023/06/14 00:14:05;;;;;;;317.97;166.43;;;;;;;20.90;99.01;99199.59;332276;29;2227;-80
2023/06/14 00:14:15;;;;;;;320.50;168.07;;;;;;;20.90;98.80;99200.44;327652;30;1154;-79
2023/06/14 00:14:26;;;;;;;321.10;167.23;;;;;;;20.90;99.11;99205.75;326390;30;2385;-79
2023/06/14 00:14:36;;;;;;;319.93;166.83;;;;;;;20.91;98.99;99206.59;325486;29;2619;-79
2023/06/14 00:14:47;;;;;;;318.98;170.80;;;;;;;20.91;98.93;99196.81;325587;30;1273;-79
2023/06/14 00:14:57;;;;;;;319.63;171.93;;;;;;;20.94;98.51;99201.00;326285;30;2018;-79
2023/06/14 00:15:09;;;;;;;318.53;169.77;;;;;;;20.96;98.96;99199.06;323496;30;2131;-79
2023/06/14 00:15:19;;;;;;;317.25;165.85;;;;;;;20.97;98.81;99205.22;321700;30;1916;-79
2023/06/14 00:15:33;;;;;;;316.38;165.43;;;;;;;20.99;98.60;99197.94;317573;31;1332;-79
2023/06/14 00:15:43;;;;;;;317.40;167.20;;;;;;;21.00;98.45;99204.94;318643;31;1286;-79
2023/06/14 00:15:54;;;;;;;318.90;165.05;;;;;;;21.01;98.42;99202.13;319242;30;1888;-79
2023/06/14 00:16:05;;;;;;;319.52;163.73;;;;;;;21.00;98.40;99194.31;318598;30;2501;-79
2023/06/14 00:16:16;;;;;;;321.03;161.90;;;;;;;21.01;98.00;99203.97;318511;31;917;-79
2023/06/14 00:16:28;;;;;;;323.10;163.57;;;;;;;21.00;98.59;99203.13;317118;30;2976;-80
2023/06/14 00:16:42;;;;;;;321.80;165.32;;;;;;;21.01;98.44;99195.97;316296;30;3033;-79
2023/06/14 00:16:52;;;;;;;316.02;162.98;;;;;;;21.03;98.21;99204.66;314306;31;2962;-78
2023/06/14 00:17:03;;;;;;;316.20;158.73;;;;;;;21.03;98.28;99202.00;309923;31;2617;-78
2023/06/14 00:17:16;;;;;;;315.25;159.43;;;;;;;21.03;98.68;99194.03;311712;31;1452;-78
2023/06/14 00:17:30;;;;;;;316.55;161.73;;;;;;;21.06;98.13;99201.72;310233;31;3094;-78
2023/06/14 00:17:40;;;;;;;316.58;163.60;;;;;;;21.07;98.13;99200.75;313059;31;2629;-80
2023/06/14 00:17:50;;;;;;;316.85;162.32;;;;;;;21.06;98.44;99199.06;314325;30;2965;-80
2023/06/14 00:18:01;;;;;;;317.00;162.93;;;;;;;21.02;98.26;99202.97;319831;30;860;-80
2023/06/14 00:18:13;;;;;;;318.00;162.23;;;;;;;20.99;98.70;99203.25;311200;31;2711;-80
2023/06/14 00:18:24;;;;;;;317.80;162.35;;;;;;;20.98;98.75;99196.25;311141;31;3684;-79
2023/06/14 00:18:34;;;;;;;324.37;166.33;;;;;;;20.95;98.54;99201.84;310988;31;4936;-78
2023/06/14 00:18:45;;;;;;;324.80;166.43;;;;;;;20.95;98.87;99201.84;309522;31;3181;-80
2023/06/14 00:18:56;;;;;;;327.83;167.52;;;;;;;20.91;99.15;99196.81;307429;31;3979;-79
2023/06/14 00:19:06;;;;;;;323.57;164.53;;;;;;;20.90;99.13;99197.78;307047;31;4016;-79
2023/06/14 00:19:16;;;;;;;322.97;165.33;;;;;;;20.92;98.79;99203.81;307489;32;773;-80
2023/06/14 00:19:27;;;;;;;321.23;165.73;;;;;;;20.94;99.19;99198.34;301246;32;4143;-80
2023/06/14 00:19:38;;;;;;;318.67;162.68;;;;;;;20.96;99.23;99201.72;302971;32;4124;-79
2023/06/14 00:19:49;;;;;;;318.77;164.00;;;;;;;20.97;98.98;99197.22;305398;32;3463;-79
2023/06/14 00:19:59;;;;;;;318.00;164.20;;;;;;;20.97;98.83;99200.75;305287;32;876;-79
2023/06/14 00:20:10;;;;;;;322.33;170.43;;;;;;;20.98;98.79;99199.75;299211;32;3007;-79
2023/06/14 00:20:21;;;;;;;323.80;170.48;;;;;;;21.00;99.08;99204.94;297334;32;3868;-79
2023/06/14 00:20:32;;;;;;;322.80;169.93;;;;;;;21.00;98.59;99200.47;295086;33;1330;-79
2023/06/14 00:20:43;;;;;;;323.27;168.43;;;;;;;20.99;98.51;99200.59;287366;34;1292;-79
2023/06/14 00:20:53;;;;;;;325.02;168.07;;;;;;;21.02;98.74;99197.66;284835;34;5717;-79
2023/06/14 00:21:04;;;;;;;329.70;170.83;;;;;;;21.02;98.47;99200.31;282951;34;5919;-79
2023/06/14 00:21:15;;;;;;;326.52;170.27;;;;;;;21.02;98.54;99202.97;283545;34;1424;-79
2023/06/14 00:21:28;;;;;;;321.25;166.80;;;;;;;21.04;98.57;99201.03;281218;34;5607;-79
2023/06/14 00:21:38;;;;;;;321.40;169.15;;;;;;;21.04;98.51;99198.38;278437;35;5840;-79
2023/06/14 00:21:50;;;;;;;323.17;170.10;;;;;;;21.05;98.78;99200.03;274694;35;5767;-79
2023/06/14 00:22:00;;;;;;;323.42;168.90;;;;;;;20.99;98.97;99197.94;276769;35;1141;-79
2023/06/14 00:22:12;;;;;;;323.50;169.47;;;;;;;20.97;98.91;99199.91;275679;35;4758;-79
2023/06/14 00:22:24;;;;;;;327.20;171.00;;;;;;;20.95;98.96;99205.34;272368;35;5124;-79
2023/06/14 00:24:11;;;;;;;304.84;150.39;;;;;;;20.91;99.92;99202.13;2496509;27;20262;-79
2023/06/14 00:24:22;;;;;;;315.93;162.70;;;;;;;20.90;99.47;99200.44;351422;28;1206;-79
2023/06/14 00:24:32;;;;;;;317.97;164.33;;;;;;;20.85;99.97;99194.69;347279;28;1380;-79
2023/06/14 00:24:43;;;;;;;320.75;166.00;;;;;;;20.84;99.86;99200.16;350229;28;1234;-79
2023/06/14 00:24:53;;;;;;;320.07;164.30;;;;;;;20.83;99.75;99196.66;348816;28;1428;-79
2023/06/14 00:25:06;;;;;;;321.83;163.55;;;;;;;20.86;100.00;99199.03;347665;28;1240;-79
2023/06/14 00:25:16;;;;;;;321.27;160.90;;;;;;;20.87;99.79;99200.72;348630;28;1413;-79
2023/06/14 00:25:26;;;;;;;319.95;160.57;;;;;;;20.89;100.00;99197.91;348830;28;1349;-79
2023/06/14 00:25:37;;;;;;;323.87;162.60;;;;;;;20.83;99.87;99196.66;349619;28;1474;-79
2023/06/14 00:25:47;;;;;;;325.42;163.30;;;;;;;20.76;100.00;99197.38;347360;28;1177;-79
2023/06/14 00:25:58;;;;;;;326.43;164.53;;;;;;;20.77;100.00;99194.56;349024;28;1413;-79
2023/06/14 00:26:08;;;;;;;325.08;164.15;;;;;;;20.74;100.00;99194.84;347428;28;1517;-79
2023/06/14 00:26:19;;;;;;;323.37;163.13;;;;;;;20.79;100.00;99199.75;348772;28;1336;-79
2023/06/14 00:26:29;;;;;;;324.23;162.50;;;;;;;20.82;100.00;99191.47;345916;28;1303;-79
2023/06/14 00:26:40;;;;;;;321.60;162.40;;;;;;;20.84;100.00;99195.69;347397;28;1258;-79
2023/06/14 00:26:50;;;;;;;321.40;163.30;;;;;;;20.87;100.00;99200.72;346620;28;1270;-80
2023/06/14 00:27:00;;;;;;;321.48;165.07;;;;;;;20.88;100.00;99201.56;344661;28;1319;-80
2023/06/14 00:27:11;;;;;;;321.97;165.23;;;;;;;20.90;100.00;99195.13;346275;28;1238;-80
2023/06/14 00:27:21;;;;;;;322.38;163.48;;;;;;;20.92;100.00;99195.81;344672;28;1235;-79
2023/06/14 00:27:32;;;;;;;322.40;161.93;;;;;;;20.95;99.72;99202.69;345951;28;1360;-79
2023/06/14 00:27:42;;;;;;;323.90;165.57;;;;;;;20.97;100.00;99195.41;347328;28;3599;-79
2023/06/14 00:27:53;;;;;;;325.47;169.83;;;;;;;20.99;99.62;99203.25;343134;28;2912;-79
2023/06/14 00:28:04;;;;;;;326.30;169.10;;;;;;;20.99;99.59;99197.94;346095;28;3310;-79
2023/06/14 00:28:14;;;;;;;325.80;168.82;;;;;;;20.98;99.86;99197.09;347102;28;1483;-80
2023/06/14 00:28:25;;;;;;;324.93;165.90;;;;;;;21.01;99.98;99201.31;346026;28;3340;-80
2023/06/14 00:28:36;;;;;;;325.77;164.35;;;;;;;21.02;99.59;99197.66;345400;28;1670;-80
2023/06/14 00:28:47;;;;;;;321.88;160.25;;;;;;;21.03;99.76;99199.34;343546;28;1412;-80
2023/06/14 00:28:57;;;;;;;318.90;161.63;;;;;;;21.04;99.89;99201.03;343473;28;1255;-79
2023/06/14 00:29:08;;;;;;;315.30;162.40;;;;;;;21.05;99.88;99197.38;344600;28;1322;-79
2023/06/14 00:29:18;;;;;;;319.83;164.68;;;;;;;21.06;99.37;99199.06;344715;28;1298;-81
2023/06/14 00:29:28;;;;;;;319.53;162.77;;;;;;;21.06;99.40;99199.06;346098;28;1199;-80
2023/06/14 00:29:39;;;;;;;319.95;165.38;;;;;;;21.07;99.46;99198.94;343936;28;1341;-79
2023/06/14 00:29:49;;;;;;;318.33;166.10;;;;;;;21.08;99.30;99197.94;344492;28;1183;-78
2023/06/14 00:30:00;;;;;;;319.23;165.95;;;;;;;21.09;99.53;99196.13;343362;28;1265;-78
2023/06/14 00:30:11;;;;;;;321.17;163.93;;;;;;;21.12;99.18;99198.50;341999;28;1215;-78
2023/06/14 00:30:21;;;;;;;321.58;162.32;;;;;;;21.13;99.19;99198.38;343176;28;1254;-77
2023/06/14 00:30:32;;;;;;;321.83;164.17;;;;;;;21.12;98.94;99198.50;340733;28;1137;-80
2023/06/14 00:30:44;;;;;;;320.40;164.98;;;;;;;21.12;98.85;99201.16;336668;29;1307;-79
2023/06/14 00:30:54;;;;;;;320.40;165.35;;;;;;;21.09;99.02;99199.63;342677;28;1281;-79
2023/06/14 00:31:04;;;;;;;322.47;167.47;;;;;;;21.09;99.25;99198.78;342627;28;1003;-79
2023/06/14 00:31:15;;;;;;;323.98;170.55;;;;;;;21.05;99.36;99192.06;338200;29;1313;-79
2023/06/14 00:31:25;;;;;;;323.80;170.57;;;;;;;21.05;99.56;99195.56;342101;28;1384;-79
2023/06/14 00:31:35;;;;;;;322.13;168.30;;;;;;;21.04;99.41;99190.38;343438;28;812;-79
2023/06/14 00:31:46;;;;;;;321.33;164.75;;;;;;;21.05;99.45;99192.06;339312;29;886;-79
2023/06/14 00:31:56;;;;;;;322.00;165.73;;;;;;;21.04;99.17;99195.69;339329;29;1259;-79
2023/06/14 00:32:07;;;;;;;321.48;164.20;;;;;;;21.05;99.20;99194.72;337310;29;1276;-80
2023/06/14 00:32:18;;;;;;;321.20;163.60;;;;;;;21.06;99.02;99189.25;338490;28;1394;-80
2023/06/14 00:32:28;;;;;;;322.30;164.07;;;;;;;21.07;99.48;99195.44;343329;28;1171;-80
2023/06/14 00:32:39;;;;;;;324.35;166.98;;;;;;;21.08;99.12;99191.78;336853;29;1430;-79
2023/06/14 00:32:49;;;;;;;327.40;171.67;;;;;;;21.10;99.53;99195.16;333454;29;1250;-79
2023/06/14 00:33:01;;;;;;;327.15;170.27;;;;;;;21.09;99.23;99188.16;333017;29;1037;-79
2023/06/14 00:33:11;;;;;;;323.60;167.88;;;;;;;21.11;99.09;99191.50;334330;29;839;-79
2023/06/14 00:33:22;;;;;;;323.83;166.70;;;;;;;21.10;99.24;99193.31;334152;29;1180;-79
2023/06/14 00:33:32;;;;;;;325.10;169.43;;;;;;;21.13;99.03;99192.22;333074;29;1402;-79
2023/06/14 00:33:42;;;;;;;323.43;166.67;;;;;;;21.13;99.46;99190.38;331921;29;933;-79
2023/06/14 00:33:53;;;;;;;322.73;165.90;;;;;;;21.14;98.94;99193.88;334835;29;1503;-79
2023/06/14 00:34:03;;;;;;;321.83;165.53;;;;;;;21.10;99.05;99187.16;332376;29;1475;-79
2023/06/14 00:34:14;;;;;;;321.98;166.90;;;;;;;21.10;99.23;99192.50;327934;30;1317;-79
2023/06/14 00:34:24;;;;;;;322.40;168.80;;;;;;;21.08;99.51;99189.13;330861;29;1535;-79
2023/06/14 00:34:35;;;;;;;322.33;167.43;;;;;;;21.09;99.38;99188.97;329677;29;1620;-80
2023/06/14 00:34:45;;;;;;;322.50;166.40;;;;;;;21.06;98.99;99199.91;331803;29;858;-80
2023/06/14 00:34:55;;;;;;;321.15;165.10;;;;;;;21.06;99.42;99188.41;335011;29;1365;-80
2023/06/14 00:35:07;;;;;;;322.77;167.10;;;;;;;21.06;99.27;99189.25;330077;29;1745;-79
2023/06/14 00:35:18;;;;;;;325.02;169.75;;;;;;;21.06;99.51;99189.25;326404;30;1597;-79
2023/06/14 00:35:28;;;;;;;326.73;169.30;;;;;;;21.08;99.30;99189.13;326807;30;820;-79
2023/06/14 00:35:39;;;;;;;327.08;168.85;;;;;;;21.08;99.27;99194.44;326704;30;1251;-79
2023/06/14 00:35:49;;;;;;;327.60;171.17;;;;;;;21.10;99.17;99189.81;325966;30;1723;-79
2023/06/14 00:36:00;;;;;;;325.73;173.47;;;;;;;21.10;98.91;99189.81;324338;30;1224;-79
2023/06/14 00:36:10;;;;;;;322.87;171.00;;;;;;;21.12;99.23;99187.88;320781;30;2017;-80
2023/06/14 00:36:20;;;;;;;322.10;169.75;;;;;;;21.09;99.53;99190.81;325504;30;1993;-79
2023/06/14 00:36:31;;;;;;;322.20;167.53;;;;;;;21.10;99.61;99187.16;321387;30;2087;-79
2023/06/14 00:36:41;;;;;;;327.77;168.77;;;;;;;21.10;99.44;99190.66;317288;31;1170;-79
2023/06/14 00:36:52;;;;;;;330.90;170.40;;;;;;;21.11;99.52;99192.34;316934;30;3981;-79
2023/06/14 00:37:02;;;;;;;331.40;172.73;;;;;;;21.12;99.11;99190.53;315633;30;3214;-79
2023/06/14 00:37:13;;;;;;;329.33;172.87;;;;;;;21.15;99.30;99198.22;316241;31;5838;-79
2023/06/14 00:37:23;;;;;;;329.37;170.90;;;;;;;21.13;99.38;99197.53;321856;30;2380;-80
2023/06/14 00:37:33;;;;;;;327.27;170.02;;;;;;;21.14;99.42;99191.22;321981;30;3262;-79
2023/06/14 00:37:44;;;;;;;324.63;167.23;;;;;;;21.13;99.35;99185.06;320789;30;1334;-79
2023/06/14 00:37:54;;;;;;;318.52;164.95;;;;;;;21.16;99.06;99191.94;320663;30;1735;-79
2023/06/14 00:38:05;;;;;;;319.77;167.00;;;;;;;21.17;99.05;99196.28;318575;30;1906;-79
2023/06/14 00:38:15;;;;;;;317.67;166.38;;;;;;;21.17;99.01;99190.94;316363;31;889;-79
2023/06/14 00:38:26;;;;;;;316.77;166.53;;;;;;;21.16;99.16;99189.28;310749;31;1250;-79
2023/06/14 00:38:36;;;;;;;318.77;166.10;;;;;;;21.17;99.03;99188.28;309819;31;2644;-79
2023/06/14 00:38:47;;;;;;;322.47;170.73;;;;;;;21.20;98.99;99196.00;308582;31;3205;-79
2023/06/14 00:38:57;;;;;;;323.58;172.90;;;;;;;21.20;99.04;99196.00;310043;31;3176;-79
2023/06/14 00:39:09;;;;;;;325.87;175.90;;;;;;;21.20;99.39;99196.00;304315;32;3911;-78
2023/06/14 00:39:19;;;;;;;326.08;174.50;;;;;;;21.20;99.22;99190.69;303097;32;3087;-80
2023/06/14 00:39:30;;;;;;;328.83;174.33;;;;;;;21.22;99.37;99194.06;305330;32;1136;-80
2023/06/14 00:39:40;;;;;;;325.27;171.77;;;;;;;21.22;99.05;99200.22;309958;31;3058;-79
2023/06/14 00:39:51;;;;;;;322.93;169.17;;;;;;;21.22;98.82;99194.06;304370;32;2393;-79
2023/06/14 00:40:01;;;;;;;323.83;166.35;;;;;;;21.22;98.90;99194.91;302593;32;2332;-79
2023/06/14 00:40:12;;;;;;;322.67;167.27;;;;;;;21.19;99.07;99194.31;302038;32;1153;-79
2023/06/14 00:40:22;;;;;;;324.00;169.00;;;;;;;21.11;99.18;99186.19;303417;32;2961;-79
2023/06/14 00:40:34;;;;;;;322.53;170.90;;;;;;;21.09;99.48;99193.47;304036;32;3314;-80
2023/06/14 00:40:44;;;;;;;321.55;171.45;;;;;;;21.10;99.46;99187.16;303131;32;1369;-80
2023/06/14 00:40:55;;;;;;;318.87;170.70;;;;;;;21.10;99.44;99185.34;304245;32;3923;-79
2023/06/14 00:41:05;;;;;;;318.98;169.30;;;;;;;21.13;99.72;99189.56;303789;32;5239;-81
2023/06/14 00:41:16;;;;;;;320.67;171.37;;;;;;;21.13;99.42;99186.88;303170;32;3665;-79
2023/06/14 00:41:27;;;;;;;322.60;169.73;;;;;;;21.14;99.34;99192.06;298023;33;1238;-79
2023/06/14 00:41:37;;;;;;;320.77;168.77;;;;;;;21.12;99.30;99182.53;296149;33;4255;-79
2023/06/14 00:41:48;;;;;;;323.40;168.57;;;;;;;21.15;99.03;99188.44;295986;33;3992;-80
2023/06/14 00:41:59;;;;;;;322.85;169.80;;;;;;;21.17;98.95;99188.28;294372;33;1075;-80
2023/06/14 00:42:10;;;;;;;323.42;172.43;;;;;;;21.13;99.41;99189.56;295614;33;3035;-81
2023/06/14 00:42:24;;;;;;;324.00;171.93;;;;;;;21.11;99.33;99186.19;292856;33;3715;-81
2023/06/14 00:42:35;;;;;;;321.58;166.48;;;;;;;21.13;99.51;99194.88;292423;33;3988;-81
2023/06/14 00:42:45;;;;;;;322.23;169.10;;;;;;;21.15;99.56;99192.91;293188;33;884;-81
2023/06/14 00:42:56;;;;;;;324.50;171.75;;;;;;;21.13;99.54;99181.56;286654;34;2486;-81
2023/06/14 00:43:06;;;;;;;329.83;173.93;;;;;;;21.15;99.32;99192.91;284693;34;6001;-80
2023/06/14 00:43:16;;;;;;;330.30;174.47;;;;;;;21.14;99.54;99185.91;284486;34;6457;-80
2023/06/14 00:43:27;;;;;;;333.52;176.02;;;;;;;21.13;99.39;99186.88;283681;34;1297;-80
2023/06/14 00:43:37;;;;;;;325.23;173.23;;;;;;;21.03;99.73;99181.56;281089;34;6605;-80
2023/06/14 00:43:48;;;;;;;325.02;173.65;;;;;;;21.05;99.84;99192.91;277369;34;7553;-80
2023/06/14 00:43:59;;;;;;;323.10;173.40;;;;;;;21.07;100.00;99184.78;277401;35;907;-80
2023/06/14 00:44:10;;;;;;;328.50;175.45;;;;;;;21.04;99.92;99185.91;278502;35;5176;-80
2023/06/14 00:44:21;;;;;;;330.40;173.43;;;;;;;21.08;99.68;99183.81;275459;35;4267;-80
2023/06/14 00:44:31;;;;;;;328.63;171.32;;;;;;;21.05;99.56;99176.09;271282;35;5298;-80
2023/06/14 00:44:42;;;;;;;327.93;170.50;;;;;;;21.10;99.49;99181.84;271428;36;1313;-80
2023/06/14 00:44:52;;;;;;;328.33;171.80;;;;;;;21.10;99.64;99181.84;268590;36;6792;-80
2023/06/14 00:45:03;;;;;;;329.67;175.35;;;;;;;21.08;100.00;99181.97;266641;36;7293;-80
2023/06/14 00:45:14;;;;;;;328.83;176.93;;;;;;;21.11;99.41;99180.88;268674;36;1237;-80
2023/06/14 00:47:41;;;;;;;308.32;155.81;;;;;;;20.97;100.00;99181.28;2495073;27;20678;-79
2023/06/14 00:47:54;;;;;;;320.17;167.20;;;;;;;20.96;100.00;99187.56;353077;28;806;-80
2023/06/14 00:48:06;;;;;;;316.80;163.38;;;;;;;20.93;100.00;99178.88;348744;28;1294;-80
2023/06/14 00:48:16;;;;;;;317.15;161.68;;;;;;;20.95;100.00;99180.56;348770;28;1447;-80
2023/06/14 00:48:27;;;;;;;317.67;160.97;;;;;;;20.95;100.00;99181.41;348802;28;1018;-80
2023/06/14 00:48:37;;;;;;;319.95;164.38;;;;;;;20.98;100.00;99180.28;350176;28;1339;-80
2023/06/14 00:48:48;;;;;;;318.67;162.97;;;;;;;21.00;100.00;99178.34;351715;28;1302;-80
2023/06/14 00:48:58;;;;;;;319.88;163.88;;;;;;;21.02;100.00;99181.69;349641;28;1304;-80
2023/06/14 00:49:09;;;;;;;320.17;164.43;;;;;;;21.03;100.00;99188.69;348829;28;992;-80
2023/06/14 00:49:20;;;;;;;322.03;165.97;;;;;;;21.05;100.00;99178.75;348997;28;1317;-80
2023/06/14 00:49:30;;;;;;;319.83;164.30;;;;;;;21.05;100.00;99178.75;348384;28;904;-80
2023/06/14 00:49:41;;;;;;;319.35;164.23;;;;;;;21.05;100.00;99181.41;348902;28;1377;-80
2023/06/14 00:49:52;;;;;;;320.73;165.67;;;;;;;21.06;100.00;99180.44;349821;28;1203;-79
2023/06/14 00:50:02;;;;;;;321.23;164.98;;;;;;;21.06;100.00;99178.63;350159;28;1305;-79
2023/06/14 00:50:13;;;;;;;320.70;166.00;;;;;;;21.08;100.00;99183.81;347445;28;931;-79
2023/06/14 00:50:23;;;;;;;318.02;163.82;;;;;;;21.09;100.00;99180.16;348712;28;1399;-79
2023/06/14 00:50:34;;;;;;;316.13;165.23;;;;;;;21.10;100.00;99185.34;349459;28;1169;-78
2023/06/14 00:50:45;;;;;;;319.37;167.93;;;;;;;21.10;100.00;99180.03;344591;28;1335;-81
2023/06/14 00:50:56;;;;;;;318.50;165.75;;;;;;;21.10;100.00;99181.84;348923;28;986;-80
2023/06/14 00:51:06;;;;;;;319.03;164.77;;;;;;;21.09;100.00;99178.34;348378;28;1341;-80
2023/06/14 00:51:17;;;;;;;319.77;164.82;;;;;;;21.10;99.90;99174.69;347096;28;1368;-80
2023/06/14 00:51:27;;;;;;;324.63;165.70;;;;;;;21.10;100.00;99182.69;348888;28;1200;-80
2023/06/14 00:51:39;;;;;;;325.58;163.13;;;;;;;21.10;100.00;99181.84;347237;28;1308;-79
2023/06/14 00:51:50;;;;;;;324.50;162.30;;;;;;;21.07;100.00;99184.78;350082;28;1212;-79
2023/06/14 00:52:02;;;;;;;323.58;164.98;;;;;;;21.06;100.00;99180.44;350259;28;1039;-79
2023/06/14 00:52:14;;;;;;;320.65;166.07;;;;;;;21.07;100.00;99182.97;347535;28;1031;-79
2023/06/14 00:52:24;;;;;;;318.15;164.00;;;;;;;21.05;100.00;99182.25;345056;28;1249;-78
2023/06/14 00:52:35;;;;;;;318.77;164.40;;;;;;;21.04;100.00;99179.75;346525;28;802;-78
2023/06/14 00:52:45;;;;;;;323.33;164.23;;;;;;;21.07;100.00;99179.47;346140;28;1208;-80
2023/06/14 00:52:56;;;;;;;325.77;165.20;;;;;;;21.07;100.00;99184.78;344690;28;1287;-79
2023/06/14 00:53:06;;;;;;;326.00;165.30;;;;;;;21.06;100.00;99181.28;346869;28;1330;-79
2023/06/14 00:53:26;;;;;;;322.67;164.93;;;;;;;21.06;100.00;99177.78;346929;28;1344;-80
2023/06/14 00:53:36;;;;;;;324.08;170.65;;;;;;;21.08;100.00;99181.97;351608;28;1412;-80
2023/06/14 00:53:46;;;;;;;323.85;171.00;;;;;;;21.06;100.00;99175.13;349065;28;1247;-80
2023/06/14 00:53:57;;;;;;;321.83;169.73;;;;;;;21.03;100.00;99183.38;346058;28;1397;-80
2023/06/14 00:54:08;;;;;;;321.80;165.23;;;;;;;20.99;100.00;99177.50;349496;28;1235;-80
2023/06/14 00:54:18;;;;;;;326.60;165.23;;;;;;;20.99;100.00;99177.50;349282;28;1353;-80
2023/06/14 00:54:28;;;;;;;329.02;166.85;;;;;;;20.96;100.00;99177.78;347409;28;1437;-80
2023/06/14 00:54:40;;;;;;;330.30;171.77;;;;;;;20.98;100.00;99183.78;350363;28;1283;-81
2023/06/14 00:54:50;;;;;;;325.45;172.32;;;;;;;20.97;100.00;99181.28;347383;28;1439;-80
2023/06/14 00:55:01;;;;;;;323.92;167.15;;;;;;;20.93;100.00;99173.56;345655;28;1504;-80
2023/06/14 00:55:18;;;;;;;322.70;162.90;;;;;;;20.90;100.00;99178.31;347301;28;1337;-80
2023/06/14 00:55:29;;;;;;;320.13;166.17;;;;;;;20.91;100.00;99180.00;349236;28;1185;-80
2023/06/14 00:55:40;;;;;;;317.05;163.82;;;;;;;20.90;100.00;99171.19;343316;28;841;-80
2023/06/14 00:55:50;;;;;;;321.50;166.63;;;;;;;20.90;100.00;99176.50;340444;29;1410;-80